CheckWX is a tool to help pilots better visualize weather data.  It is not intended as a substitute for an official pre-flight weather briefing.

12:27:27 UTC

KSDL TAF
Scottsdale Airport
Scottsdale, Arizona, USA
KSDL 221134Z 2212/2312 VRB03KT P6SM SKC FM221800 22005KT P6SM FEW250

Mar-22@
12:00 UTC

Mar-22 @ 12:00 UTC

Mar-22@
18:00 UTC

Mar-22 @ 18:00 UTC

KSDL 221134Z 2212/2312 VRB03KT P6SM SKC
Wind
  • Variable at 3 KTS
Cloud Levels
  • Clear skies

Mar-22@
18:00 UTC

Mar-22 @ 18:00 UTC

Mar-23@
12:00 UTC

Mar-23 @ 12:00 UTC

FM221800 22005KT P6SM FEW250

From

From Standard forecast or significant change

Wind
  • 220° at 5 KTS
Cloud Levels
  • Few at 25,000' AGL